createdAt,value
2019-05-10T00:00:19.414Z,99093.89
2019-05-10T00:03:08.905Z,99092.36
2019-05-10T00:05:57.235Z,99095.83
2019-05-10T00:08:45.689Z,99095.23
2019-05-10T00:11:22.709Z,99095.04
2019-05-10T00:13:55.931Z,99097.20
2019-05-10T00:16:27.553Z,99100.41
2019-05-10T00:18:58.632Z,99100.19
2019-05-10T00:21:30.278Z,99101.44
2019-05-10T00:24:01.120Z,99104.03
2019-05-10T00:26:32.307Z,99105.02
2019-05-10T00:29:03.194Z,99112.74
2019-05-10T00:31:34.202Z,99111.89
2019-05-10T00:34:05.528Z,99112.23
2019-05-10T00:36:36.206Z,99114.59
2019-05-10T00:39:08.079Z,99116.45
2019-05-10T00:41:39.062Z,99117.76
2019-05-10T00:44:10.118Z,99119.50
2019-05-10T00:46:40.774Z,99123.42
2019-05-10T00:49:12.110Z,99127.61
2019-05-10T00:51:43.170Z,99128.44
2019-05-10T00:54:15.198Z,99124.70
2019-05-10T00:56:45.879Z,99121.59
2019-05-10T00:59:16.705Z,99127.27
2019-05-10T01:01:47.701Z,99132.23
2019-05-10T01:04:18.771Z,99135.33
2019-05-10T01:06:49.916Z,99136.30
2019-05-10T01:09:20.917Z,99138.92
2019-05-10T01:11:51.623Z,99146.36
2019-05-10T01:14:22.722Z,99145.25
2019-05-10T01:16:53.368Z,99153.05
2019-05-10T01:19:24.051Z,99147.69
2019-05-10T01:21:55.121Z,99153.50
2019-05-10T01:24:26.160Z,99154.09
2019-05-10T01:26:57.197Z,99157.32
2019-05-10T01:29:28.828Z,99168.02
2019-05-10T01:31:59.691Z,99162.08
2019-05-10T01:34:30.820Z,99166.91
2019-05-10T01:37:01.607Z,99166.97
2019-05-10T01:39:32.627Z,99169.26
2019-05-10T01:42:03.358Z,99175.53
2019-05-10T01:44:35.502Z,99175.28
2019-05-10T01:47:06.429Z,99180.66
2019-05-10T01:49:38.096Z,99182.33
2019-05-10T01:52:09.047Z,99182.46
2019-05-10T01:54:40.114Z,99183.70
2019-05-10T01:57:11.919Z,99191.67
2019-05-10T01:59:42.994Z,99190.06
2019-05-10T02:02:13.974Z,99193.43
2019-05-10T02:04:45.198Z,99205.71
2019-05-10T02:07:16.073Z,99208.41
2019-05-10T02:09:47.099Z,99206.05
2019-05-10T02:12:17.832Z,99212.91
2019-05-10T02:14:49.066Z,99218.59
2019-05-10T02:17:20.204Z,99217.16
2019-05-10T02:19:51.924Z,99216.17
2019-05-10T02:22:24.025Z,99224.33
2019-05-10T02:24:55.044Z,99229.34
2019-05-10T02:27:26.093Z,99228.45
2019-05-10T02:29:57.117Z,99229.83
2019-05-10T02:32:28.095Z,99237.95
2019-05-10T02:34:58.764Z,99230.34
2019-05-10T02:37:29.541Z,99233.75
2019-05-10T02:40:00.207Z,99239.05
2019-05-10T02:42:31.609Z,99234.92
2019-05-10T02:45:02.287Z,99231.27
2019-05-10T02:47:32.960Z,99240.12
2019-05-10T02:50:05.255Z,99247.88
2019-05-10T02:52:36.270Z,99241.70
2019-05-10T02:55:10.568Z,99251.47
2019-05-10T02:57:42.314Z,99251.36
2019-05-10T03:00:13.715Z,99262.89
2019-05-10T03:02:45.792Z,99263.89
2019-05-10T03:05:16.830Z,99264.33
2019-05-10T03:07:50.881Z,99270.27
2019-05-10T03:10:21.517Z,99275.53
2019-05-10T03:12:55.730Z,99278.67
2019-05-10T03:15:31.361Z,99283.34
2019-05-10T03:18:04.541Z,99290.87
2019-05-10T03:20:38.532Z,99293.23
2019-05-10T03:23:11.164Z,99290.39
2019-05-10T03:25:42.159Z,99296.58
2019-05-10T03:28:13.246Z,99299.92
2019-05-10T03:30:43.987Z,99305.83
2019-05-10T03:33:15.001Z,99305.59
2019-05-10T03:35:46.429Z,99305.59
2019-05-10T03:38:17.394Z,99307.17
2019-05-10T03:40:48.047Z,99312.65
2019-05-10T03:43:19.025Z,99316.52
2019-05-10T03:45:49.691Z,99323.20
2019-05-10T03:48:20.382Z,99328.34
2019-05-10T03:50:51.367Z,99333.81
2019-05-10T03:53:22.317Z,99335.66
2019-05-10T03:55:53.241Z,99336.13
2019-05-10T03:58:23.905Z,99336.42
2019-05-10T04:00:54.901Z,99339.98
2019-05-10T04:03:25.599Z,99341.64
2019-05-10T04:05:56.251Z,99341.23
2019-05-10T04:08:26.968Z,99343.54
2019-05-10T04:10:58.031Z,99342.86
2019-05-10T04:13:28.736Z,99351.16
2019-05-10T04:15:59.833Z,99337.87
2019-05-10T04:18:31.192Z,99345.24
2019-05-10T04:21:01.844Z,99352.58
2019-05-10T04:23:32.541Z,99347.48
2019-05-10T04:26:03.193Z,99354.33
2019-05-10T04:28:34.220Z,99358.28
2019-05-10T04:31:04.909Z,99359.68
2019-05-10T04:33:35.552Z,99357.03
2019-05-10T04:36:06.228Z,99361.73
2019-05-10T04:38:37.073Z,99366.30
2019-05-10T04:41:07.748Z,99372.77
2019-05-10T04:43:38.421Z,99367.22
2019-05-10T04:46:09.098Z,99376.83
2019-05-10T04:48:39.838Z,99371.00
2019-05-10T04:51:10.526Z,99377.16
2019-05-10T04:53:41.567Z,99379.77
2019-05-10T04:56:12.350Z,99380.28
2019-05-10T04:58:43.323Z,99386.88
2019-05-10T05:01:14.285Z,99380.35
2019-05-10T05:03:45.049Z,99385.77
2019-05-10T05:06:16.052Z,99388.14
2019-05-10T05:08:47.101Z,99391.70
2019-05-10T05:11:19.118Z,99394.05
2019-05-10T05:13:49.795Z,99390.95
2019-05-10T05:16:20.761Z,99392.20
2019-05-10T05:18:51.769Z,99389.74
2019-05-10T05:21:22.572Z,99394.64
2019-05-10T05:23:53.679Z,99398.34
2019-05-10T05:26:24.349Z,99403.51
2019-05-10T05:28:55.360Z,99406.11
2019-05-10T05:31:26.016Z,99403.79
2019-05-10T05:33:59.223Z,99405.03
2019-05-10T05:36:29.412Z,99414.05
2019-05-10T05:39:00.129Z,99417.13
2019-05-10T05:41:31.926Z,99419.33
2019-05-10T05:44:03.007Z,99417.81
2019-05-10T05:46:34.647Z,99422.72
2019-05-10T05:49:05.624Z,99423.80
2019-05-10T05:51:36.658Z,99419.20
2019-05-10T05:54:08.668Z,99417.51
2019-05-10T05:56:44.613Z,99425.27
2019-05-10T05:59:17.506Z,99424.58
2019-05-10T06:01:46.095Z,99428.91
2019-05-10T06:04:18.590Z,99430.71
2019-05-10T06:06:53.820Z,99434.72
2019-05-10T06:09:22.688Z,99436.77
2019-05-10T06:11:53.678Z,99444.08
2019-05-10T06:14:24.407Z,99441.73
2019-05-10T06:16:55.098Z,99446.42
2019-05-10T06:19:29.365Z,99443.73
2019-05-10T06:22:04.605Z,99447.13
2019-05-10T06:24:34.192Z,99440.34
2019-05-10T06:27:05.059Z,99454.27
2019-05-10T06:29:35.749Z,99443.35
2019-05-10T06:32:06.527Z,99448.05
2019-05-10T06:34:38.789Z,99453.33
2019-05-10T06:37:10.156Z,99460.12
2019-05-10T06:39:40.876Z,99460.63
2019-05-10T06:42:11.967Z,99463.72
2019-05-10T06:44:42.718Z,99471.98
2019-05-10T06:47:13.779Z,99470.31
2019-05-10T06:49:50.651Z,99482.02
2019-05-10T06:52:22.004Z,99486.93
2019-05-10T06:54:49.697Z,99483.41
2019-05-10T06:57:20.702Z,99496.25
2019-05-10T06:59:56.477Z,99494.22
2019-05-10T07:02:26.758Z,99502.07
2019-05-10T07:04:56.735Z,99507.44
2019-05-10T07:07:43.429Z,99504.11
2019-05-10T07:10:05.719Z,99506.94
2019-05-10T07:12:32.576Z,99509.96
2019-05-10T07:15:05.496Z,99511.57
2019-05-10T07:17:41.311Z,99515.05
2019-05-10T07:20:09.896Z,99514.50
2019-05-10T07:22:40.589Z,99516.59
2019-05-10T07:25:12.145Z,99509.22
2019-05-10T07:27:44.273Z,99516.71
2019-05-10T07:30:18.109Z,99520.64
2019-05-10T07:32:49.098Z,99518.41
2019-05-10T07:35:20.039Z,99526.22
2019-05-10T07:37:51.819Z,99529.69
2019-05-10T07:40:23.090Z,99529.10
2019-05-10T07:42:54.030Z,99528.33
2019-05-10T07:45:25.753Z,99540.51
2019-05-10T07:47:57.136Z,99536.36
2019-05-10T07:50:27.834Z,99534.63
2019-05-10T07:52:58.493Z,99547.84
2019-05-10T07:55:30.153Z,99543.26
2019-05-10T07:58:05.063Z,99550.69
2019-05-10T08:00:38.158Z,99550.53
2019-05-10T08:03:15.462Z,99558.56
2019-05-10T08:05:39.342Z,99558.73
2019-05-10T08:08:10.286Z,99569.08
2019-05-10T08:10:41.230Z,99566.30
2019-05-10T08:13:15.363Z,99566.98
2019-05-10T08:15:44.670Z,99570.30
2019-05-10T08:18:20.375Z,99569.64
2019-05-10T08:20:53.749Z,99569.00
2019-05-10T08:23:23.837Z,99571.52
2019-05-10T08:25:53.545Z,99572.13
2019-05-10T08:28:28.027Z,99573.97
2019-05-10T08:30:59.036Z,99568.26
2019-05-10T08:33:29.799Z,99575.88
2019-05-10T08:36:04.983Z,99574.13
2019-05-10T08:38:33.456Z,99574.16
2019-05-10T08:41:08.243Z,99576.98
2019-05-10T08:43:38.763Z,99583.55
2019-05-10T08:46:11.804Z,99586.72
2019-05-10T08:48:46.552Z,99590.16
2019-05-10T08:51:14.654Z,99585.19
2019-05-10T08:53:47.067Z,99589.91
2019-05-10T08:56:23.404Z,99591.31
2019-05-10T08:58:53.351Z,99595.52
2019-05-10T09:01:29.551Z,99596.67
2019-05-10T09:04:01.987Z,99604.58
2019-05-10T09:06:29.539Z,99606.56
2019-05-10T09:09:03.186Z,99605.02
2019-05-10T09:11:35.194Z,99602.14
2019-05-10T09:14:14.456Z,99594.33
2019-05-10T09:16:43.707Z,99590.86
2019-05-10T09:19:12.912Z,99583.93
2019-05-10T09:21:49.944Z,99587.63
2019-05-10T09:24:15.990Z,99586.66
2019-05-10T09:26:51.624Z,99584.59
2019-05-10T09:29:19.045Z,99590.96
2019-05-10T09:31:51.228Z,99591.28
2019-05-10T09:34:26.218Z,99596.09
2019-05-10T09:36:56.374Z,99584.77
2019-05-10T09:39:27.344Z,99591.83
2019-05-10T09:41:58.478Z,99591.91
2019-05-10T09:44:29.411Z,99587.59
2019-05-10T09:47:03.674Z,99591.53
2019-05-10T09:49:33.310Z,99589.94
2019-05-10T09:52:12.417Z,99599.41
2019-05-10T09:54:38.082Z,99593.22
2019-05-10T09:57:09.186Z,99596.91
2019-05-10T09:59:39.859Z,99586.11
2019-05-10T10:02:18.143Z,99594.84
2019-05-10T10:04:44.423Z,99587.38
2019-05-10T10:07:18.733Z,99589.78
2019-05-10T10:09:47.889Z,99591.84
2019-05-10T10:12:18.640Z,99602.16
2019-05-10T10:14:49.563Z,99601.56
2019-05-10T10:17:20.685Z,99611.97
2019-05-10T10:19:51.392Z,99617.16
2019-05-10T10:22:22.070Z,99625.52
2019-05-10T10:24:55.243Z,99618.13
2019-05-10T10:27:33.817Z,99632.14
2019-05-10T10:29:58.015Z,99623.66
2019-05-10T10:32:33.156Z,99632.41
2019-05-10T10:35:01.616Z,99639.16
2019-05-10T10:37:32.773Z,99637.20
2019-05-10T10:40:07.874Z,99632.84
2019-05-10T10:42:38.049Z,99630.70
2019-05-10T10:45:09.830Z,99629.68
2019-05-10T10:47:40.801Z,99633.98
2019-05-10T10:50:13.622Z,99631.75
2019-05-10T10:52:44.580Z,99635.45
2019-05-10T10:55:18.503Z,99629.96
2019-05-10T10:57:48.844Z,99630.99
2019-05-10T11:00:33.357Z,99634.13
2019-05-10T11:03:05.503Z,99644.34
2019-05-10T11:05:37.998Z,99644.04
2019-05-10T11:08:11.021Z,99656.95
2019-05-10T11:10:42.899Z,99661.39
2019-05-10T11:13:23.770Z,99658.67
2019-05-10T11:15:51.694Z,99661.59
2019-05-10T11:18:24.217Z,99674.08
2019-05-10T11:20:55.006Z,99681.72
2019-05-10T11:23:33.971Z,99673.72
2019-05-10T11:25:58.137Z,99680.66
2019-05-10T11:28:32.075Z,99683.91
2019-05-10T11:31:03.679Z,99687.66
2019-05-10T11:33:34.541Z,99690.32
2019-05-10T11:36:08.609Z,99680.03
2019-05-10T11:38:41.991Z,99675.00
2019-05-10T11:41:20.622Z,99669.23
2019-05-10T11:43:45.405Z,99669.80
2019-05-10T11:46:16.080Z,99670.73
2019-05-10T11:48:47.026Z,99675.42
2019-05-10T11:51:18.024Z,99673.26
2019-05-10T11:53:54.586Z,99671.53
2019-05-10T11:56:27.379Z,99669.91
2019-05-10T12:01:26.366Z,99662.55
2019-05-10T12:03:57.380Z,99667.88
2019-05-10T12:06:31.766Z,99671.52
2019-05-10T12:09:04.543Z,99653.64
2019-05-10T12:11:40.808Z,99679.47
2019-05-10T12:14:07.392Z,99677.67
2019-05-10T12:16:41.755Z,99680.63
2019-05-10T12:19:19.843Z,99688.30
2019-05-10T12:21:43.148Z,99696.29
2019-05-10T12:24:32.450Z,99694.02
2019-05-10T12:26:15.807Z,99665.30
2019-05-10T12:29:21.142Z,99705.39
2019-05-10T12:31:53.396Z,99703.10
2019-05-10T12:34:23.838Z,99706.99
2019-05-10T12:36:57.460Z,99705.72
2019-05-10T12:39:27.209Z,99713.71
2019-05-10T12:41:57.896Z,99712.55
2019-05-10T12:44:33.152Z,99709.86
2019-05-10T12:47:01.378Z,99714.38
2019-05-10T12:49:36.281Z,99710.00
2019-05-10T12:52:09.058Z,99716.90
2019-05-10T12:54:38.542Z,99717.18
2019-05-10T12:57:09.233Z,99715.38
2019-05-10T12:59:39.928Z,99714.08
2019-05-10T13:02:12.980Z,99728.23
2019-05-10T13:04:47.010Z,99722.55
2019-05-10T13:07:15.422Z,99722.88
2019-05-10T13:09:49.624Z,99720.08
2019-05-10T13:12:18.746Z,99717.81
2019-05-10T13:14:52.689Z,99726.81
2019-05-10T13:17:22.599Z,99708.05
2019-05-10T13:19:58.585Z,99723.76
2019-05-10T13:22:36.639Z,99722.88
2019-05-10T13:25:01.849Z,99727.61
2019-05-10T13:27:32.538Z,99724.47
2019-05-10T13:30:05.166Z,99728.81
2019-05-10T13:32:35.807Z,99728.21
2019-05-10T13:35:07.650Z,99730.78
2019-05-10T13:37:38.278Z,99731.83
2019-05-10T13:40:09.253Z,99725.64
2019-05-10T13:42:45.798Z,99728.83
2019-05-10T13:45:13.227Z,99730.05
2019-05-10T13:47:43.874Z,99737.33
2019-05-10T13:50:15.804Z,99740.27
2019-05-10T13:52:46.846Z,99733.52
2019-05-10T13:55:17.550Z,99728.13
2019-05-10T13:57:49.517Z,99735.33
2019-05-10T14:00:21.616Z,99738.31
2019-05-10T14:02:52.282Z,99728.59
2019-05-10T14:05:22.968Z,99732.77
2019-05-10T14:07:53.651Z,99753.61
2019-05-10T14:10:25.356Z,99735.44
2019-05-10T14:13:02.626Z,99735.03
2019-05-10T14:15:29.678Z,99744.11
2019-05-10T14:18:00.689Z,99738.47
2019-05-10T14:20:31.634Z,99739.23
2019-05-10T14:23:02.344Z,99740.79
2019-05-10T14:25:36.134Z,99746.93
2019-05-10T14:28:09.891Z,99757.94
2019-05-10T14:30:38.172Z,99755.09
2019-05-10T14:33:14.576Z,99753.73
2019-05-10T14:35:41.296Z,99755.80
2019-05-10T14:38:11.991Z,99755.52
2019-05-10T14:40:42.693Z,99755.55
2019-05-10T14:43:13.747Z,99760.56
2019-05-10T14:45:44.678Z,99756.91
2019-05-10T14:48:15.635Z,99761.73
2019-05-10T14:50:47.111Z,99765.17
2019-05-10T14:53:19.879Z,99761.77
2019-05-10T14:55:51.342Z,99736.94
2019-05-10T14:58:22.452Z,99764.94
2019-05-10T15:00:53.662Z,99766.77
2019-05-10T15:03:24.337Z,99764.76
2019-05-10T15:06:00.976Z,99762.77
2019-05-10T15:08:28.016Z,99765.97
2019-05-10T15:10:59.136Z,99772.41
2019-05-10T15:13:30.164Z,99780.57
2019-05-10T15:16:01.115Z,99778.25
2019-05-10T15:18:31.823Z,99767.09
2019-05-10T15:21:02.499Z,99782.50
2019-05-10T15:23:33.580Z,99778.80
2019-05-10T15:26:11.451Z,99785.47
2019-05-10T15:28:40.766Z,99784.06
2019-05-10T15:31:10.036Z,99786.30
2019-05-10T15:33:40.775Z,99789.72
2019-05-10T15:36:11.714Z,99793.51
2019-05-10T15:38:50.087Z,99801.48
2019-05-10T15:41:17.040Z,99796.56
2019-05-10T15:43:49.039Z,99799.19
2019-05-10T15:46:23.052Z,99801.70
2019-05-10T15:48:52.166Z,99801.33
2019-05-10T15:51:35.298Z,99808.02
2019-05-10T15:54:03.802Z,99804.34
2019-05-10T15:56:27.896Z,99811.61
2019-05-10T15:58:58.926Z,99817.00
2019-05-10T16:01:29.623Z,99815.50
2019-05-10T16:04:00.568Z,99820.34
2019-05-10T16:06:32.570Z,99822.06
2019-05-10T16:09:16.994Z,99820.86
2019-05-10T16:11:38.406Z,99822.33
2019-05-10T16:14:09.409Z,99828.34
2019-05-10T16:16:40.054Z,99826.25
2019-05-10T16:19:12.802Z,99834.30
2019-05-10T16:21:46.605Z,99831.48
2019-05-10T16:24:25.377Z,99837.59
2019-05-10T16:26:49.288Z,99833.50
2019-05-10T16:29:20.257Z,99838.89
2019-05-10T16:31:50.954Z,99855.83
2019-05-10T16:34:26.507Z,99851.23
2019-05-10T16:36:54.603Z,99859.98
2019-05-10T16:39:25.286Z,99872.35
2019-05-10T16:41:55.999Z,99879.10
2019-05-10T16:44:26.944Z,99875.09
2019-05-10T16:46:57.893Z,99881.89
2019-05-10T16:49:28.590Z,99881.82
2019-05-10T16:51:59.594Z,99882.86
2019-05-10T16:54:31.004Z,99880.27
2019-05-10T16:57:02.068Z,99874.38
2019-05-10T16:59:35.127Z,99879.95
2019-05-10T17:02:06.550Z,99871.90
2019-05-10T17:04:39.803Z,99880.45
2019-05-10T17:07:12.858Z,99885.21
2019-05-10T17:09:43.034Z,99886.77
2019-05-10T17:12:14.110Z,99880.14
2019-05-10T17:14:45.044Z,99882.73
2019-05-10T17:17:15.778Z,99882.95
2019-05-10T17:19:46.499Z,99878.50
2019-05-10T17:22:17.429Z,99886.47
2019-05-10T17:24:48.377Z,99886.97
2019-05-10T17:27:19.111Z,99887.48
2019-05-10T17:29:51.312Z,99896.19
2019-05-10T17:32:24.663Z,99892.22
2019-05-10T17:34:59.198Z,99891.00
2019-05-10T17:37:29.939Z,99891.73
2019-05-10T17:39:59.563Z,99902.66
2019-05-10T17:42:30.750Z,99898.41
2019-05-10T17:45:04.485Z,99897.70
2019-05-10T17:47:35.534Z,99896.47
2019-05-10T17:50:10.500Z,99904.23
2019-05-10T17:52:41.501Z,99906.50
2019-05-10T17:55:16.906Z,99907.95
2019-05-10T17:57:48.730Z,99906.16
2019-05-10T18:00:19.556Z,99911.75
2019-05-10T18:02:50.584Z,99916.83
2019-05-10T18:05:23.108Z,99914.53
2019-05-10T18:07:55.044Z,99921.53
2019-05-10T18:10:25.832Z,99918.98
2019-05-10T18:12:57.445Z,99921.98
2019-05-10T18:15:33.038Z,99923.20
2019-05-10T18:18:02.783Z,99925.98
2019-05-10T18:20:41.074Z,99923.61
2019-05-10T18:23:07.230Z,99934.27
2019-05-10T18:25:39.255Z,99928.28
2019-05-10T18:28:09.910Z,99929.40
2019-05-10T18:30:40.598Z,99929.55
2019-05-10T18:33:13.948Z,99926.22
2019-05-10T18:35:47.649Z,99936.95
2019-05-10T18:38:18.443Z,99942.23
2019-05-10T18:40:49.904Z,99943.76
2019-05-10T18:43:20.619Z,99944.67
2019-05-10T18:45:51.335Z,99941.34
2019-05-10T18:48:28.088Z,99948.38
2019-05-10T18:50:59.049Z,99948.61
2019-05-10T18:53:31.207Z,99954.34
2019-05-10T18:56:02.690Z,99955.27
2019-05-10T18:58:34.718Z,99958.17
2019-05-10T19:01:05.865Z,99961.64
2019-05-10T19:03:39.862Z,99964.38
2019-05-10T19:06:11.739Z,99962.31
2019-05-10T19:08:44.110Z,99974.37
2019-05-10T19:11:16.857Z,99971.23
2019-05-10T19:13:53.752Z,99972.59
2019-05-10T19:16:26.127Z,99976.75
2019-05-10T19:18:55.898Z,99978.78
2019-05-10T19:21:30.619Z,99980.20
2019-05-10T19:23:59.230Z,99980.35
2019-05-10T19:26:31.711Z,99986.59
2019-05-10T19:29:05.347Z,99985.72
2019-05-10T19:31:38.219Z,99988.58
2019-05-10T19:34:09.029Z,99993.64
2019-05-10T19:36:40.794Z,99994.72
2019-05-10T19:39:12.714Z,99996.74
2019-05-10T19:41:43.644Z,99999.61
2019-05-10T19:44:14.317Z,100003.41
2019-05-10T19:46:45.239Z,100003.26
2019-05-10T19:49:16.232Z,99998.97
2019-05-10T19:51:48.850Z,99996.30
2019-05-10T19:54:21.339Z,100000.55
2019-05-10T19:56:55.146Z,99996.73
2019-05-10T19:59:24.731Z,100003.39
2019-05-10T20:01:55.425Z,100007.72
2019-05-10T20:04:26.105Z,100015.69
2019-05-10T20:06:57.075Z,100011.39
2019-05-10T20:09:27.768Z,100016.92
2019-05-10T20:11:58.450Z,100024.22
2019-05-10T20:14:29.386Z,100031.28
2019-05-10T20:17:00.337Z,100035.12
2019-05-10T20:19:31.266Z,100040.87
2019-05-10T20:22:02.175Z,100041.42
2019-05-10T20:24:33.198Z,100045.39
2019-05-10T20:27:04.160Z,100045.55
2019-05-10T20:29:35.812Z,100049.36
2019-05-10T20:32:06.520Z,100045.35
2019-05-10T20:34:37.195Z,100057.43
2019-05-10T20:37:08.157Z,100056.97
2019-05-10T20:39:38.860Z,100062.65
2019-05-10T20:42:09.862Z,100068.80
2019-05-10T20:44:40.958Z,100067.83
2019-05-10T20:47:11.951Z,100057.84
2019-05-10T20:49:42.768Z,100053.24
2019-05-10T20:52:13.524Z,100059.59
2019-05-10T20:54:44.496Z,100056.63
2019-05-10T20:57:15.177Z,100058.08
2019-05-10T20:59:46.674Z,100052.09
2019-05-10T21:02:17.761Z,100052.83
2019-05-10T21:04:49.212Z,100054.91
2019-05-10T21:07:20.493Z,100054.23
2019-05-10T21:09:51.417Z,100062.47
2019-05-10T21:12:22.099Z,100059.47
2019-05-10T21:14:53.042Z,100061.70
2019-05-10T21:17:24.030Z,100064.20
2019-05-10T21:19:54.993Z,100056.85
2019-05-10T21:22:26.263Z,100052.45
2019-05-10T21:24:57.284Z,100056.83
2019-05-10T21:27:27.934Z,100058.80
2019-05-10T21:29:58.924Z,100063.56
2019-05-10T21:32:29.854Z,100068.92
2019-05-10T21:35:00.839Z,100066.80
2019-05-10T21:37:31.761Z,100068.19
2019-05-10T21:40:02.721Z,100073.94
2019-05-10T21:42:34.272Z,100066.80
2019-05-10T21:45:05.749Z,100074.84
2019-05-10T21:47:50.662Z,100065.50
2019-05-10T21:50:09.323Z,100075.50
2019-05-10T21:52:40.351Z,100076.14
2019-05-10T21:55:11.465Z,100080.14
2019-05-10T21:57:42.638Z,100080.48
2019-05-10T22:00:16.450Z,100080.61
2019-05-10T22:02:49.264Z,100077.95
2019-05-10T22:05:20.338Z,100076.78
2019-05-10T22:07:51.075Z,100082.13
2019-05-10T22:10:21.818Z,100082.98
2019-05-10T22:12:52.495Z,100076.84
2019-05-10T22:15:23.205Z,100083.30
2019-05-10T22:17:54.295Z,100071.44
2019-05-10T22:20:24.978Z,100067.75
2019-05-10T22:22:55.670Z,100062.73
2019-05-10T22:25:26.362Z,100064.13
2019-05-10T22:27:57.034Z,100065.65
2019-05-10T22:30:27.812Z,100072.66
2019-05-10T22:32:58.834Z,100079.81
2019-05-10T22:35:29.544Z,100082.48
2019-05-10T22:38:00.578Z,100092.98
2019-05-10T22:40:31.553Z,100093.31
2019-05-10T22:43:02.259Z,100090.11
2019-05-10T22:45:32.929Z,100095.14
2019-05-10T22:48:04.005Z,100086.63
2019-05-10T22:50:34.666Z,100084.47
2019-05-10T22:53:05.394Z,100084.14
2019-05-10T22:55:36.731Z,100094.09
2019-05-10T22:58:07.499Z,100100.14
2019-05-10T23:00:38.240Z,100098.97
2019-05-10T23:03:09.243Z,100099.80
2019-05-10T23:05:40.048Z,100109.50
2019-05-10T23:08:10.985Z,100113.83
2019-05-10T23:10:41.706Z,100114.33
2019-05-10T23:13:12.391Z,100115.11
2019-05-10T23:15:43.075Z,100117.25
2019-05-10T23:18:14.148Z,100118.78
2019-05-10T23:20:44.809Z,100116.13
2019-05-10T23:23:15.833Z,100121.92
2019-05-10T23:25:46.495Z,100121.34
2019-05-10T23:28:17.521Z,100114.84
2019-05-10T23:30:48.198Z,100119.75
2019-05-10T23:33:19.059Z,100111.27
2019-05-10T23:35:49.761Z,100111.27
2019-05-10T23:38:20.877Z,100114.45
2019-05-10T23:40:51.646Z,100112.58
2019-05-10T23:43:22.306Z,100114.41
2019-05-10T23:45:53.015Z,100108.56
2019-05-10T23:48:24.045Z,100117.89
2019-05-10T23:50:54.756Z,100105.53
2019-05-10T23:53:25.448Z,100105.06
2019-05-10T23:55:56.383Z,100093.22
2019-05-10T23:58:27.923Z,100084.91
